sensor_id;sensor_type;location;lat;lon;timestamp;pressure;altitude;pressure_sealevel;temperature;humidity
5609;BME280;2826;51.354;9.588;2022-12-18T00:00:58;99450.00;;;-11.53;100.00
5609;BME280;2826;51.354;9.588;2022-12-18T00:03:25;99425.00;;;-11.65;100.00
5609;BME280;2826;51.354;9.588;2022-12-18T00:05:53;99448.06;;;-11.58;100.00
5609;BME280;2826;51.354;9.588;2022-12-18T00:08:20;99447.41;;;-11.55;100.00
5609;BME280;2826;51.354;9.588;2022-12-18T00:10:47;99457.63;;;-11.52;100.00
5609;BME280;2826;51.354;9.588;2022-12-18T00:13:14;99459.16;;;-11.54;100.00
5609;BME280;2826;51.354;9.588;2022-12-18T00:15:41;99467.97;;;-11.47;100.00
5609;BME280;2826;51.354;9.588;2022-12-18T00:18:08;99472.88;;;-11.49;100.00
5609;BME280;2826;51.354;9.588;2022-12-18T00:20:36;99478.63;;;-11.50;100.00
5609;BME280;2826;51.354;9.588;2022-12-18T00:23:05;99474.19;;;-11.54;100.00
5609;BME280;2826;51.354;9.588;2022-12-18T00:25:32;99479.28;;;-11.52;100.00
5609;BME280;2826;51.354;9.588;2022-12-18T00:28:00;99482.56;;;-11.53;100.00
5609;BME280;2826;51.354;9.588;2022-12-18T00:30:27;99463.28;;;-11.55;100.00
5609;BME280;2826;51.354;9.588;2022-12-18T00:32:54;99462.41;;;-11.55;100.00
5609;BME280;2826;51.354;9.588;2022-12-18T00:35:25;99467.31;;;-11.57;100.00
5609;BME280;2826;51.354;9.588;2022-12-18T00:37:52;99466.25;;;-11.60;100.00
5609;BME280;2826;51.354;9.588;2022-12-18T00:40:20;99466.91;;;-11.63;100.00
5609;BME280;2826;51.354;9.588;2022-12-18T00:42:47;99469.28;;;-11.64;100.00
5609;BME280;2826;51.354;9.588;2022-12-18T00:45:26;99466.13;;;-11.62;100.00
5609;BME280;2826;51.354;9.588;2022-12-18T00:47:55;99462.00;;;-11.61;100.00
5609;BME280;2826;51.354;9.588;2022-12-18T00:50:24;99467.13;;;-11.60;100.00
5609;BME280;2826;51.354;9.588;2022-12-18T00:52:52;99462.41;;;-11.55;100.00
5609;BME280;2826;51.354;9.588;2022-12-18T00:55:20;99465.25;;;-11.50;100.00
5609;BME280;2826;51.354;9.588;2022-12-18T00:57:47;99466.97;;;-11.49;100.00
5609;BME280;2826;51.354;9.588;2022-12-18T01:00:16;99472.97;;;-11.47;100.00
5609;BME280;2826;51.354;9.588;2022-12-18T01:02:44;99475.50;;;-11.47;100.00
5609;BME280;2826;51.354;9.588;2022-12-18T01:05:12;99476.78;;;-11.52;100.00
5609;BME280;2826;51.354;9.588;2022-12-18T01:07:39;99474.81;;;-11.57;100.00
5609;BME280;2826;51.354;9.588;2022-12-18T01:10:07;99471.34;;;-11.59;100.00
5609;BME280;2826;51.354;9.588;2022-12-18T01:12:37;99477.91;;;-11.61;100.00
5609;BME280;2826;51.354;9.588;2022-12-18T01:15:05;99477.69;;;-11.64;100.00
5609;BME280;2826;51.354;9.588;2022-12-18T01:17:33;99479.84;;;-11.69;100.00
5609;BME280;2826;51.354;9.588;2022-12-18T01:20:00;99487.91;;;-11.73;100.00
5609;BME280;2826;51.354;9.588;2022-12-18T01:22:27;99488.44;;;-11.77;100.00
5609;BME280;2826;51.354;9.588;2022-12-18T01:24:54;99489.88;;;-11.81;100.00
5609;BME280;2826;51.354;9.588;2022-12-18T01:27:22;99491.06;;;-11.87;100.00
5609;BME280;2826;51.354;9.588;2022-12-18T01:29:52;99497.50;;;-11.91;100.00
5609;BME280;2826;51.354;9.588;2022-12-18T01:32:19;99498.16;;;-11.94;100.00
5609;BME280;2826;51.354;9.588;2022-12-18T01:34:46;99495.41;;;-11.97;100.00
5609;BME280;2826;51.354;9.588;2022-12-18T01:37:13;99494.53;;;-11.97;100.00
5609;BME280;2826;51.354;9.588;2022-12-18T01:39:40;99496.19;;;-11.98;100.00
5609;BME280;2826;51.354;9.588;2022-12-18T01:42:11;99493.56;;;-11.99;100.00
5609;BME280;2826;51.354;9.588;2022-12-18T01:45:00;99477.38;;;-12.04;100.00
5609;BME280;2826;51.354;9.588;2022-12-18T01:47:35;99491.59;;;-12.03;100.00
5609;BME280;2826;51.354;9.588;2022-12-18T01:50:07;99490.94;;;-12.01;100.00
5609;BME280;2826;51.354;9.588;2022-12-18T01:52:37;99491.06;;;-11.99;100.00
5609;BME280;2826;51.354;9.588;2022-12-18T01:55:08;99492.69;;;-12.00;100.00
5609;BME280;2826;51.354;9.588;2022-12-18T01:57:36;99489.34;;;-12.00;100.00
5609;BME280;2826;51.354;9.588;2022-12-18T02:00:09;99484.34;;;-12.00;100.00
5609;BME280;2826;51.354;9.588;2022-12-18T02:02:40;99490.94;;;-12.01;100.00
5609;BME280;2826;51.354;9.588;2022-12-18T02:05:09;99487.69;;;-12.00;100.00
5609;BME280;2826;51.354;9.588;2022-12-18T02:07:42;99489.53;;;-11.97;100.00
5609;BME280;2826;51.354;9.588;2022-12-18T02:10:17;99495.53;;;-11.95;100.00
5609;BME280;2826;51.354;9.588;2022-12-18T02:12:50;99477.72;;;-12.12;100.00
5609;BME280;2826;51.354;9.588;2022-12-18T02:15:25;99490.19;;;-12.00;100.00
5609;BME280;2826;51.354;9.588;2022-12-18T02:17:57;99485.28;;;-11.98;100.00
5609;BME280;2826;51.354;9.588;2022-12-18T02:20:31;99496.94;;;-11.99;100.00
5609;BME280;2826;51.354;9.588;2022-12-18T02:23:08;99479.09;;;-12.03;100.00
5609;BME280;2826;51.354;9.588;2022-12-18T02:26:10;99485.94;;;-12.01;100.00
5609;BME280;2826;51.354;9.588;2022-12-18T02:28:45;99490.00;;;-12.03;100.00
5609;BME280;2826;51.354;9.588;2022-12-18T02:31:15;99490.56;;;-12.07;100.00
5609;BME280;2826;51.354;9.588;2022-12-18T02:33:44;99489.78;;;-12.06;100.00
5609;BME280;2826;51.354;9.588;2022-12-18T02:36:13;99493.78;;;-12.08;100.00
5609;BME280;2826;51.354;9.588;2022-12-18T02:38:44;99490.22;;;-12.12;100.00
5609;BME280;2826;51.354;9.588;2022-12-18T02:41:16;99481.09;;;-12.11;100.00
5609;BME280;2826;51.354;9.588;2022-12-18T02:43:49;99482.59;;;-12.13;100.00
5609;BME280;2826;51.354;9.588;2022-12-18T02:46:26;99485.31;;;-12.10;100.00
5609;BME280;2826;51.354;9.588;2022-12-18T02:48:59;99490.09;;;-12.13;100.00
5609;BME280;2826;51.354;9.588;2022-12-18T02:51:31;99494.13;;;-12.15;100.00
5609;BME280;2826;51.354;9.588;2022-12-18T02:54:07;99499.13;;;-12.15;100.00
5609;BME280;2826;51.354;9.588;2022-12-18T02:56:45;99493.78;;;-12.20;100.00
5609;BME280;2826;51.354;9.588;2022-12-18T02:59:18;99497.16;;;-12.19;100.00
5609;BME280;2826;51.354;9.588;2022-12-18T03:01:57;99490.75;;;-12.16;100.00
5609;BME280;2826;51.354;9.588;2022-12-18T03:04:29;99484.25;;;-12.14;100.00
5609;BME280;2826;51.354;9.588;2022-12-18T03:07:01;99482.16;;;-12.08;100.00
5609;BME280;2826;51.354;9.588;2022-12-18T03:09:32;99482.69;;;-12.00;100.00
5609;BME280;2826;51.354;9.588;2022-12-18T03:12:08;99473.66;;;-11.98;100.00
5609;BME280;2826;51.354;9.588;2022-12-18T03:14:53;99442.47;;;-12.03;100.00
5609;BME280;2826;51.354;9.588;2022-12-18T03:17:25;99458.53;;;-11.87;100.00
5609;BME280;2826;51.354;9.588;2022-12-18T03:19:54;99465.63;;;-11.82;100.00
5609;BME280;2826;51.354;9.588;2022-12-18T03:22:27;99470.84;;;-11.78;100.00
5609;BME280;2826;51.354;9.588;2022-12-18T03:24:57;99469.41;;;-11.75;100.00
5609;BME280;2826;51.354;9.588;2022-12-18T03:27:31;99466.16;;;-11.74;100.00
5609;BME280;2826;51.354;9.588;2022-12-18T03:30:06;99464.41;;;-11.75;100.00
5609;BME280;2826;51.354;9.588;2022-12-18T03:32:42;99466.16;;;-11.74;100.00
5609;BME280;2826;51.354;9.588;2022-12-18T03:35:13;99465.91;;;-11.77;100.00
5609;BME280;2826;51.354;9.588;2022-12-18T03:37:42;99455.59;;;-11.82;100.00
5609;BME280;2826;51.354;9.588;2022-12-18T03:40:09;99457.66;;;-11.88;100.00
5609;BME280;2826;51.354;9.588;2022-12-18T03:42:45;99457.47;;;-11.91;100.00
5609;BME280;2826;51.354;9.588;2022-12-18T03:45:21;99458.84;;;-11.95;100.00
5609;BME280;2826;51.354;9.588;2022-12-18T03:47:58;99462.91;;;-11.97;100.00
5609;BME280;2826;51.354;9.588;2022-12-18T03:50:42;99461.94;;;-11.99;100.00
5609;BME280;2826;51.354;9.588;2022-12-18T03:53:19;99460.72;;;-12.04;100.00
5609;BME280;2826;51.354;9.588;2022-12-18T03:55:51;99455.44;;;-12.09;100.00
5609;BME280;2826;51.354;9.588;2022-12-18T03:58:23;99461.94;;;-12.11;100.00
5609;BME280;2826;51.354;9.588;2022-12-18T04:01:00;99458.59;;;-12.11;100.00
5609;BME280;2826;51.354;9.588;2022-12-18T04:03:29;99454.44;;;-12.11;100.00
5609;BME280;2826;51.354;9.588;2022-12-18T04:05:59;99456.94;;;-12.11;100.00
5609;BME280;2826;51.354;9.588;2022-12-18T04:08:28;99462.81;;;-12.10;100.00
5609;BME280;2826;51.354;9.588;2022-12-18T04:11:06;99474.25;;;-12.14;100.00
5609;BME280;2826;51.354;9.588;2022-12-18T04:13:36;99470.97;;;-12.13;100.00
5609;BME280;2826;51.354;9.588;2022-12-18T04:16:07;99462.69;;;-12.12;100.00
5609;BME280;2826;51.354;9.588;2022-12-18T04:18:37;99460.31;;;-12.10;100.00
5609;BME280;2826;51.354;9.588;2022-12-18T04:21:03;99459.44;;;-12.11;100.00
5609;BME280;2826;51.354;9.588;2022-12-18T04:23:32;99460.75;;;-12.16;100.00
5609;BME280;2826;51.354;9.588;2022-12-18T04:25:59;99469.97;;;-12.15;100.00
5609;BME280;2826;51.354;9.588;2022-12-18T04:28:40;99479.97;;;-12.15;100.00
5609;BME280;2826;51.354;9.588;2022-12-18T04:31:08;99470.75;;;-12.16;100.00
5609;BME280;2826;51.354;9.588;2022-12-18T04:33:36;99474.97;;;-12.15;100.00
5609;BME280;2826;51.354;9.588;2022-12-18T04:36:04;99472.59;;;-12.13;100.00
5609;BME280;2826;51.354;9.588;2022-12-18T04:38:31;99470.97;;;-12.13;100.00
5609;BME280;2826;51.354;9.588;2022-12-18T04:41:04;99472.72;;;-12.12;100.00
5609;BME280;2826;51.354;9.588;2022-12-18T04:43:31;99470.97;;;-12.13;100.00
5609;BME280;2826;51.354;9.588;2022-12-18T04:46:04;99463.34;;;-12.14;100.00
5609;BME280;2826;51.354;9.588;2022-12-18T04:48:31;99463.34;;;-12.14;100.00
5609;BME280;2826;51.354;9.588;2022-12-18T04:50:58;99464.78;;;-12.18;100.00
5609;BME280;2826;51.354;9.588;2022-12-18T04:53:25;99472.03;;;-12.21;100.00
5609;BME280;2826;51.354;9.588;2022-12-18T04:56:02;99467.47;;;-12.27;100.00
5609;BME280;2826;51.354;9.588;2022-12-18T04:58:29;99398.28;;;-12.74;100.00
5609;BME280;2826;51.354;9.588;2022-12-18T05:00:56;99475.63;;;-12.29;100.00
5609;BME280;2826;51.354;9.588;2022-12-18T05:03:24;99478.78;;;-12.32;100.00
5609;BME280;2826;51.354;9.588;2022-12-18T05:05:51;99488.78;;;-12.32;100.00
5609;BME280;2826;51.354;9.588;2022-12-18T05:08:18;99488.00;;;-12.31;100.00
5609;BME280;2826;51.354;9.588;2022-12-18T05:10:45;99478.88;;;-12.30;100.00
5609;BME280;2826;51.354;9.588;2022-12-18T05:13:12;99490.09;;;-12.25;100.00
5609;BME280;2826;51.354;9.588;2022-12-18T05:15:39;99493.59;;;-12.23;100.00
5609;BME280;2826;51.354;9.588;2022-12-18T05:18:07;99497.69;;;-12.24;100.00
5609;BME280;2826;51.354;9.588;2022-12-18T05:20:36;99491.16;;;-12.22;100.00
5609;BME280;2826;51.354;9.588;2022-12-18T05:23:03;99486.16;;;-12.22;100.00
5609;BME280;2826;51.354;9.588;2022-12-18T05:25:30;99488.13;;;-12.17;100.00
5609;BME280;2826;51.354;9.588;2022-12-18T05:27:57;99497.41;;;-12.16;100.00
5609;BME280;2826;51.354;9.588;2022-12-18T05:30:24;99493.66;;;-12.22;100.00
5609;BME280;2826;51.354;9.588;2022-12-18T05:32:51;99502.69;;;-12.24;100.00
5609;BME280;2826;51.354;9.588;2022-12-18T05:35:18;99502.34;;;-12.28;100.00
5609;BME280;2826;51.354;9.588;2022-12-18T05:37:46;99496.16;;;-12.34;100.00
5609;BME280;2826;51.354;9.588;2022-12-18T05:40:13;99506.16;;;-12.34;100.00
5609;BME280;2826;51.354;9.588;2022-12-18T05:42:40;99503.44;;;-12.37;100.00
5609;BME280;2826;51.354;9.588;2022-12-18T05:45:07;99497.56;;;-12.37;100.00
5609;BME280;2826;51.354;9.588;2022-12-18T05:47:34;99499.94;;;-12.39;100.00
5609;BME280;2826;51.354;9.588;2022-12-18T05:50:01;99493.22;;;-12.40;100.00
5609;BME280;2826;51.354;9.588;2022-12-18T05:52:28;99494.72;;;-12.42;100.00
5609;BME280;2826;51.354;9.588;2022-12-18T05:54:57;99483.75;;;-12.44;100.00
5609;BME280;2826;51.354;9.588;2022-12-18T05:57:25;99485.50;;;-12.43;100.00
5609;BME280;2826;51.354;9.588;2022-12-18T05:59:52;99489.00;;;-12.41;100.00
5609;BME280;2826;51.354;9.588;2022-12-18T06:02:19;99485.50;;;-12.43;100.00
5609;BME280;2826;51.354;9.588;2022-12-18T06:04:46;99484.63;;;-12.43;100.00
5609;BME280;2826;51.354;9.588;2022-12-18T06:07:13;99488.75;;;-12.44;100.00
5609;BME280;2826;51.354;9.588;2022-12-18T06:09:40;99498.75;;;-12.44;100.00
5609;BME280;2826;51.354;9.588;2022-12-18T06:12:08;99493.53;;;-12.47;100.00
5609;BME280;2826;51.354;9.588;2022-12-18T06:14:35;99490.69;;;-12.52;100.00
5609;BME280;2826;51.354;9.588;2022-12-18T06:17:03;99488.94;;;-12.53;100.00
5609;BME280;2826;51.354;9.588;2022-12-18T06:19:29;99500.25;;;-12.46;100.00
5609;BME280;2826;51.354;9.588;2022-12-18T06:21:56;99497.13;;;-12.43;100.00
5609;BME280;2826;51.354;9.588;2022-12-18T06:24:24;99499.28;;;-12.48;100.00
5609;BME280;2826;51.354;9.588;2022-12-18T06:26:51;99497.66;;;-12.48;100.00
5609;BME280;2826;51.354;9.588;2022-12-18T06:29:19;99503.50;;;-12.47;100.00
5609;BME280;2826;51.354;9.588;2022-12-18T06:31:46;99501.78;;;-12.48;100.00
5609;BME280;2826;51.354;9.588;2022-12-18T06:34:13;99501.78;;;-12.48;100.00
5609;BME280;2826;51.354;9.588;2022-12-18T06:36:39;99506.53;;;-12.51;100.00
5609;BME280;2826;51.354;9.588;2022-12-18T06:39:06;99505.81;;;-12.50;100.00
5609;BME280;2826;51.354;9.588;2022-12-18T06:41:33;99506.78;;;-12.48;100.00
5609;BME280;2826;51.354;9.588;2022-12-18T06:44:00;99506.78;;;-12.48;100.00
5609;BME280;2826;51.354;9.588;2022-12-18T06:46:28;99502.53;;;-12.49;100.00
5609;BME280;2826;51.354;9.588;2022-12-18T06:48:55;99506.13;;;-12.45;100.00
5609;BME280;2826;51.354;9.588;2022-12-18T06:51:22;99509.63;;;-12.43;100.00
5609;BME280;2826;51.354;9.588;2022-12-18T06:53:50;99505.47;;;-12.43;100.00
5609;BME280;2826;51.354;9.588;2022-12-18T06:56:17;99507.22;;;-12.42;100.00
5609;BME280;2826;51.354;9.588;2022-12-18T06:58:43;99509.84;;;-12.40;100.00
5609;BME280;2826;51.354;9.588;2022-12-18T07:01:11;99506.81;;;-12.36;100.00
5609;BME280;2826;51.354;9.588;2022-12-18T07:03:40;99507.16;;;-12.31;100.00
5609;BME280;2826;51.354;9.588;2022-12-18T07:06:13;99509.53;;;-12.33;100.00
5609;BME280;2826;51.354;9.588;2022-12-18T07:08:40;99511.91;;;-12.35;100.00
5609;BME280;2826;51.354;9.588;2022-12-18T07:11:07;99506.56;;;-12.39;100.00
5609;BME280;2826;51.354;9.588;2022-12-18T07:13:34;99520.19;;;-12.36;100.00
5609;BME280;2826;51.354;9.588;2022-12-18T07:16:06;99521.16;;;-12.34;100.00
5609;BME280;2826;51.354;9.588;2022-12-18T07:18:34;99519.66;;;-12.31;100.00
5609;BME280;2826;51.354;9.588;2022-12-18T07:21:06;99518.78;;;-12.32;100.00
5609;BME280;2826;51.354;9.588;2022-12-18T07:23:34;99524.84;;;-12.28;100.00
5609;BME280;2826;51.354;9.588;2022-12-18T07:26:02;99535.84;;;-12.26;100.00
5609;BME280;2826;51.354;9.588;2022-12-18T07:28:29;99522.69;;;-12.36;100.00
5609;BME280;2826;51.354;9.588;2022-12-18T07:30:56;99550.22;;;-12.24;100.00
5609;BME280;2826;51.354;9.588;2022-12-18T07:33:22;99545.09;;;-12.25;100.00
5609;BME280;2826;51.354;9.588;2022-12-18T07:35:49;99549.44;;;-12.23;100.00
5609;BME280;2826;51.354;9.588;2022-12-18T07:38:18;99558.81;;;-12.20;100.00
5609;BME280;2826;51.354;9.588;2022-12-18T07:40:45;99558.16;;;-12.17;100.00
5609;BME280;2826;51.354;9.588;2022-12-18T07:43:11;99561.78;;;-12.14;100.00
5609;BME280;2826;51.354;9.588;2022-12-18T07:45:38;99566.97;;;-12.11;100.00
5609;BME280;2826;51.354;9.588;2022-12-18T07:48:05;99555.34;;;-12.10;100.00
5609;BME280;2826;51.354;9.588;2022-12-18T07:50:32;99554.47;;;-12.11;100.00
5609;BME280;2826;51.354;9.588;2022-12-18T07:52:59;99546.44;;;-12.07;100.00
5609;BME280;2826;51.354;9.588;2022-12-18T07:55:30;99549.81;;;-12.06;99.89
5609;BME280;2826;51.354;9.588;2022-12-18T07:58:00;99550.00;;;-12.03;99.79
5609;BME280;2826;51.354;9.588;2022-12-18T08:00:27;99547.59;;;-12.01;99.79
5609;BME280;2826;51.354;9.588;2022-12-18T08:02:54;99537.06;;;-11.97;99.78
5609;BME280;2826;51.354;9.588;2022-12-18T08:05:21;99533.28;;;-11.92;99.95
5609;BME280;2826;51.354;9.588;2022-12-18T08:07:48;99521.31;;;-11.84;100.00
5609;BME280;2826;51.354;9.588;2022-12-18T08:10:15;99520.97;;;-11.77;100.00
5609;BME280;2826;51.354;9.588;2022-12-18T08:12:44;99520.78;;;-11.68;100.00
5609;BME280;2826;51.354;9.588;2022-12-18T08:15:11;99519.56;;;-11.61;100.00
5609;BME280;2826;51.354;9.588;2022-12-18T08:17:37;99522.50;;;-11.55;99.97
5609;BME280;2826;51.354;9.588;2022-12-18T08:20:05;99532.28;;;-11.46;100.00
5609;BME280;2826;51.354;9.588;2022-12-18T08:22:33;99536.09;;;-11.39;99.78
5609;BME280;2826;51.354;9.588;2022-12-18T08:25:00;99525.44;;;-11.37;99.42
5609;BME280;2826;51.354;9.588;2022-12-18T08:27:27;99494.84;;;-11.45;99.39
5609;BME280;2826;51.354;9.588;2022-12-18T08:29:55;99524.84;;;-11.21;99.36
5609;BME280;2826;51.354;9.588;2022-12-18T08:32:22;99526.66;;;-11.06;100.00
5609;BME280;2826;51.354;9.588;2022-12-18T08:34:49;99525.56;;;-10.98;100.00
5609;BME280;2826;51.354;9.588;2022-12-18T08:37:15;99534.56;;;-10.88;100.00
5609;BME280;2826;51.354;9.588;2022-12-18T08:39:42;99530.47;;;-10.74;100.00
5609;BME280;2826;51.354;9.588;2022-12-18T08:42:09;99519.53;;;-10.63;100.00
5609;BME280;2826;51.354;9.588;2022-12-18T08:44:55;99517.19;;;-10.47;100.00
5609;BME280;2826;51.354;9.588;2022-12-18T08:47:22;99521.16;;;-10.38;100.00
5609;BME280;2826;51.354;9.588;2022-12-18T08:49:49;99506.78;;;-10.27;100.00
5609;BME280;2826;51.354;9.588;2022-12-18T08:52:16;99508.47;;;-10.14;100.00
5609;BME280;2826;51.354;9.588;2022-12-18T08:54:43;99503.47;;;-10.00;99.94
5609;BME280;2826;51.354;9.588;2022-12-18T08:57:10;99495.84;;;-9.88;99.83
5609;BME280;2826;51.354;9.588;2022-12-18T08:59:37;99492.53;;;-9.74;99.50
5609;BME280;2826;51.354;9.588;2022-12-18T09:02:05;99488.31;;;-9.61;99.36
5609;BME280;2826;51.354;9.588;2022-12-18T09:04:32;99486.66;;;-9.47;99.13
5609;BME280;2826;51.354;9.588;2022-12-18T09:06:59;99474.66;;;-9.38;98.67
5609;BME280;2826;51.354;9.588;2022-12-18T09:09:26;99481.78;;;-9.31;98.12
5609;BME280;2826;51.354;9.588;2022-12-18T09:11:52;99487.44;;;-9.20;98.09
5609;BME280;2826;51.354;9.588;2022-12-18T09:14:19;99479.88;;;-9.06;98.24
5609;BME280;2826;51.354;9.588;2022-12-18T09:16:46;99469.78;;;-8.93;98.05
5609;BME280;2826;51.354;9.588;2022-12-18T09:19:14;99474.16;;;-8.75;98.24
5609;BME280;2826;51.354;9.588;2022-12-18T09:21:41;99475.16;;;-8.58;98.32
5609;BME280;2826;51.354;9.588;2022-12-18T09:24:12;99475.06;;;-8.44;97.92
5609;BME280;2826;51.354;9.588;2022-12-18T09:26:39;99475.69;;;-8.33;97.58
5609;BME280;2826;51.354;9.588;2022-12-18T09:29:06;99481.66;;;-8.31;97.24
5609;BME280;2826;51.354;9.588;2022-12-18T09:31:34;99480.09;;;-8.14;97.93
5609;BME280;2826;51.354;9.588;2022-12-18T09:34:02;99490.84;;;-8.02;97.73
5609;BME280;2826;51.354;9.588;2022-12-18T09:36:31;99497.78;;;-7.97;96.71
5609;BME280;2826;51.354;9.588;2022-12-18T09:38:58;99487.47;;;-7.87;96.86
5609;BME280;2826;51.354;9.588;2022-12-18T09:41:35;99488.69;;;-7.80;96.20
5609;BME280;2826;51.354;9.588;2022-12-18T09:44:12;99479.44;;;-7.65;96.75
5609;BME280;2826;51.354;9.588;2022-12-18T09:46:44;99485.66;;;-7.58;95.64
5609;BME280;2826;51.354;9.588;2022-12-18T09:49:14;99482.78;;;-7.49;95.70
5609;BME280;2826;51.354;9.588;2022-12-18T09:51:47;99465.91;;;-7.50;95.32
5609;BME280;2826;51.354;9.588;2022-12-18T09:54:20;99474.88;;;-7.55;95.32
5609;BME280;2826;51.354;9.588;2022-12-18T09:56:48;99483.47;;;-7.52;95.68
5609;BME280;2826;51.354;9.588;2022-12-18T09:59:21;99487.13;;;-7.46;95.72
5609;BME280;2826;51.354;9.588;2022-12-18T10:01:50;99489.56;;;-7.48;96.09
5609;BME280;2826;51.354;9.588;2022-12-18T10:04:17;99489.09;;;-7.41;96.34
5609;BME280;2826;51.354;9.588;2022-12-18T10:06:51;99497.13;;;-7.31;96.83
5609;BME280;2826;51.354;9.588;2022-12-18T10:09:28;99467.59;;;-7.34;97.01
5609;BME280;2826;51.354;9.588;2022-12-18T10:12:04;99486.72;;;-7.06;96.70
5609;BME280;2826;51.354;9.588;2022-12-18T10:14:37;99476.84;;;-7.01;95.72
5609;BME280;2826;51.354;9.588;2022-12-18T10:17:15;99437.88;;;-7.25;95.09
5609;BME280;2826;51.354;9.588;2022-12-18T10:19:50;99469.84;;;-7.07;94.81
5609;BME280;2826;51.354;9.588;2022-12-18T10:22:27;99478.06;;;-7.11;94.59
5609;BME280;2826;51.354;9.588;2022-12-18T10:25:02;99479.00;;;-7.09;94.87
5609;BME280;2826;51.354;9.588;2022-12-18T10:27:32;99479.94;;;-7.07;94.91
5609;BME280;2826;51.354;9.588;2022-12-18T10:29:59;99471.50;;;-7.07;94.66
5609;BME280;2826;51.354;9.588;2022-12-18T10:32:30;99472.06;;;-6.97;95.38
5609;BME280;2826;51.354;9.588;2022-12-18T10:34:58;99473.56;;;-6.84;95.53
5609;BME280;2826;51.354;9.588;2022-12-18T10:37:28;99467.53;;;-6.69;95.50
5609;BME280;2826;51.354;9.588;2022-12-18T10:40:08;99474.63;;;-6.45;95.77
5609;BME280;2826;51.354;9.588;2022-12-18T10:42:37;99476.72;;;-6.20;95.55
5609;BME280;2826;51.354;9.588;2022-12-18T10:45:09;99483.09;;;-6.10;94.46
5609;BME280;2826;51.354;9.588;2022-12-18T10:47:42;99484.25;;;-6.03;94.64
5609;BME280;2826;51.354;9.588;2022-12-18T10:50:19;99483.56;;;-5.99;93.69
5609;BME280;2826;51.354;9.588;2022-12-18T10:52:55;99449.06;;;-5.98;94.05
5609;BME280;2826;51.354;9.588;2022-12-18T10:55:27;99444.75;;;-5.83;93.70
5609;BME280;2826;51.354;9.588;2022-12-18T10:58:13;99463.63;;;-5.56;92.43
5609;BME280;2826;51.354;9.588;2022-12-18T11:00:42;99446.75;;;-5.38;92.71
5609;BME280;2826;51.354;9.588;2022-12-18T11:03:30;99445.41;;;-5.11;92.81
5609;BME280;2826;51.354;9.588;2022-12-18T11:06:06;99433.75;;;-4.88;91.98
5609;BME280;2826;51.354;9.588;2022-12-18T11:08:34;99426.06;;;-4.69;91.12
5609;BME280;2826;51.354;9.588;2022-12-18T11:11:06;99413.06;;;-4.57;90.89
5609;BME280;2826;51.354;9.588;2022-12-18T11:13:33;99424.00;;;-4.37;90.36
5609;BME280;2826;51.354;9.588;2022-12-18T11:16:00;99421.53;;;-4.36;89.28
5609;BME280;2826;51.354;9.588;2022-12-18T11:18:29;99424.69;;;-4.41;89.25
5609;BME280;2826;51.354;9.588;2022-12-18T11:20:59;99417.16;;;-4.61;88.53
5609;BME280;2826;51.354;9.588;2022-12-18T11:23:28;99409.69;;;-4.78;88.99
5609;BME280;2826;51.354;9.588;2022-12-18T11:25:58;99396.97;;;-4.79;90.32
5609;BME280;2826;51.354;9.588;2022-12-18T11:28:35;99379.47;;;-4.75;90.73
5609;BME280;2826;51.354;9.588;2022-12-18T11:31:27;99372.25;;;-4.65;90.91
5609;BME280;2826;51.354;9.588;2022-12-18T11:34:00;99384.78;;;-4.68;90.01
5609;BME280;2826;51.354;9.588;2022-12-18T11:36:31;99393.72;;;-4.77;89.99
5609;BME280;2826;51.354;9.588;2022-12-18T11:39:03;99406.78;;;-4.87;90.20
5609;BME280;2826;51.354;9.588;2022-12-18T11:41:37;99388.53;;;-5.00;90.59
5609;BME280;2826;51.354;9.588;2022-12-18T11:44:27;99400.84;;;-4.88;90.37
5609;BME280;2826;51.354;9.588;2022-12-18T11:46:58;99400.84;;;-4.88;90.51
5609;BME280;2826;51.354;9.588;2022-12-18T11:49:31;99392.41;;;-4.88;90.84
5609;BME280;2826;51.354;9.588;2022-12-18T11:52:04;99380.81;;;-4.83;91.52
5609;BME280;2826;51.354;9.588;2022-12-18T11:54:34;99385.44;;;-4.73;91.80
5609;BME280;2826;51.354;9.588;2022-12-18T11:57:07;99387.25;;;-4.70;90.83
5609;BME280;2826;51.354;9.588;2022-12-18T11:59:47;99377.19;;;-4.68;90.68
5609;BME280;2826;51.354;9.588;2022-12-18T12:05:28;99353.34;;;-4.52;91.17
5609;BME280;2826;51.354;9.588;2022-12-18T12:08:04;99332.78;;;-4.39;91.17
5609;BME280;2826;51.354;9.588;2022-12-18T12:10:42;99330.66;;;-4.28;90.78
5609;BME280;2826;51.354;9.588;2022-12-18T12:13:24;99334.38;;;-4.20;90.50
5609;BME280;2826;51.354;9.588;2022-12-18T12:16:03;99335.31;;;-4.17;90.31
5609;BME280;2826;51.354;9.588;2022-12-18T12:18:42;99317.72;;;-4.13;90.79
5609;BME280;2826;51.354;9.588;2022-12-18T12:21:17;99313.06;;;-4.02;90.56
5609;BME280;2826;51.354;9.588;2022-12-18T12:23:51;99294.09;;;-4.13;89.92
5609;BME280;2826;51.354;9.588;2022-12-18T12:26:26;99316.22;;;-4.08;90.24
5609;BME280;2826;51.354;9.588;2022-12-18T12:29:09;99330.69;;;-4.05;90.16
5609;BME280;2826;51.354;9.588;2022-12-18T12:31:56;99322.13;;;-4.09;89.70
5609;BME280;2826;51.354;9.588;2022-12-18T12:34:32;99326.22;;;-4.12;89.97
5609;BME280;2826;51.354;9.588;2022-12-18T12:37:11;99314.09;;;-4.20;90.26
5609;BME280;2826;51.354;9.588;2022-12-18T12:39:46;99306.56;;;-4.18;90.25
5609;BME280;2826;51.354;9.588;2022-12-18T12:42:18;99304.78;;;-4.21;89.66
5609;BME280;2826;51.354;9.588;2022-12-18T12:45:14;99303.69;;;-4.27;90.18
5609;BME280;2826;51.354;9.588;2022-12-18T12:47:44;99303.50;;;-4.32;90.43
5609;BME280;2826;51.354;9.588;2022-12-18T12:50:15;99305.13;;;-4.34;90.53
5609;BME280;2826;51.354;9.588;2022-12-18T12:52:45;99309.09;;;-4.41;90.45
5609;BME280;2826;51.354;9.588;2022-12-18T12:55:16;99301.06;;;-4.52;90.39
5609;BME280;2826;51.354;9.588;2022-12-18T12:57:48;99302.41;;;-4.60;90.66
5609;BME280;2826;51.354;9.588;2022-12-18T13:00:19;99301.81;;;-4.76;91.14
5609;BME280;2826;51.354;9.588;2022-12-18T13:02:52;99308.25;;;-4.84;92.13
5609;BME280;2826;51.354;9.588;2022-12-18T13:05:26;99302.13;;;-4.89;92.79
5609;BME280;2826;51.354;9.588;2022-12-18T13:08:00;99308.25;;;-4.84;92.96
5609;BME280;2826;51.354;9.588;2022-12-18T13:10:38;99301.47;;;-4.85;93.46
5609;BME280;2826;51.354;9.588;2022-12-18T13:13:07;99302.97;;;-4.89;93.98
5609;BME280;2826;51.354;9.588;2022-12-18T13:15:39;99297.06;;;-4.89;94.30
5609;BME280;2826;51.354;9.588;2022-12-18T13:18:15;99304.03;;;-4.83;94.58
5609;BME280;2826;51.354;9.588;2022-12-18T13:20:44;99298.19;;;-4.82;94.58
5609;BME280;2826;51.354;9.588;2022-12-18T13:23:33;99300.03;;;-4.78;94.97
5609;BME280;2826;51.354;9.588;2022-12-18T13:26:30;99310.03;;;-4.81;94.69
5609;BME280;2826;51.354;9.588;2022-12-18T13:28:59;99304.75;;;-4.86;94.64